Time;durP1;ratioP1;P1;durP2;ratioP2;P2;SDS_P1;SDS_P2;PMS_P1;PMS_P2;Temp;Humidity;BMP_temperature;BMP_pressure;BME280_temperature;BME280_humidity;BME280_pressure;Samples;Min_cycle;Max_cycle;Signal;HPM_P1;HPM_P2
2021/05/22 00:00:23;;;;;;;4.90;3.10;;;13.90;99.90;;;;;;6085826;22;20390;-45
2021/05/22 04:33:04;;;;;;;4.60;2.03;;;13.10;99.90;;;;;;5053712;23;20464;-47
2021/05/22 04:35:31;;;;;;;4.00;3.07;;;13.20;99.90;;;;;;5032795;28;20498;-51
2021/05/22 04:37:57;;;;;;;2.80;1.97;;;13.20;99.90;;;;;;5031419;28;20456;-45
2021/05/22 04:40:23;;;;;;;3.00;1.90;;;13.20;99.90;;;;;;5031295;28;20460;-47
2021/05/22 04:42:49;;;;;;;2.93;2.27;;;13.20;99.90;;;;;;5031163;28;20460;-52
2021/05/22 04:45:16;;;;;;;3.23;1.97;;;13.30;99.90;;;;;;5031102;28;20459;-50
2021/05/22 04:47:42;;;;;;;6.90;2.20;;;13.40;99.90;;;;;;5030971;28;20798;-43
2021/05/22 04:50:11;;;;;;;2.20;1.90;;;13.40;99.90;;;;;;5030896;28;20460;-45
2021/05/22 04:52:39;;;;;;;3.10;1.90;;;13.50;99.90;;;;;;5030643;28;20975;-47
2021/05/22 04:55:07;;;;;;;3.43;2.10;;;13.60;99.90;;;;;;5031040;28;20524;-43
2021/05/22 04:57:33;;;;;;;4.10;2.00;;;13.60;99.90;;;;;;5031057;28;20443;-48
2021/05/22 06:20:57;;;;;;;3.87;2.13;;;13.40;99.90;;;;;;5434001;23;20472;-44
2021/05/22 06:23:24;;;;;;;7.73;2.03;;;13.60;99.90;;;;;;5034592;28;20456;-46
2021/05/22 06:25:50;;;;;;;3.70;1.90;;;13.90;99.90;;;;;;5035717;28;20448;-47
2021/05/22 06:28:17;;;;;;;2.53;1.90;;;14.10;99.90;;;;;;5036524;28;20448;-45
2021/05/22 06:30:43;;;;;;;4.03;1.90;;;14.10;99.90;;;;;;5036555;28;20459;-43
2021/05/22 06:33:09;;;;;;;2.33;2.13;;;14.10;99.90;;;;;;5036544;28;21114;-45
2021/05/22 06:35:36;;;;;;;3.70;2.20;;;14.10;99.90;;;;;;5036851;28;20440;-45
2021/05/22 06:38:03;;;;;;;4.80;2.50;;;14.10;99.90;;;;;;5033180;28;20475;-45
2021/05/22 06:40:29;;;;;;;2.80;2.20;;;14.20;99.90;;;;;;5033513;28;20445;-45
2021/05/22 06:42:55;;;;;;;2.57;1.80;;;14.30;99.90;;;;;;5033412;28;20441;-45
2021/05/22 06:45:24;;;;;;;6.20;1.70;;;14.40;99.90;;;;;;5034517;28;20464;-44
2021/05/22 06:47:50;;;;;;;3.40;2.10;;;14.50;99.90;;;;;;5036522;28;20521;-46
2021/05/22 06:50:16;;;;;;;2.77;1.67;;;14.50;99.90;;;;;;5035842;28;20459;-44
2021/05/22 06:52:42;;;;;;;4.17;1.77;;;14.70;99.90;;;;;;5035323;28;20476;-43
2021/05/22 06:55:10;;;;;;;4.00;2.00;;;14.80;99.90;;;;;;5035532;28;20773;-46
2021/05/22 06:57:36;;;;;;;3.30;1.73;;;15.00;99.90;;;;;;5035478;28;20448;-45
2021/05/22 07:00:04;;;;;;;3.27;1.80;;;15.20;99.90;;;;;;5033702;28;20513;-50
2021/05/22 07:02:30;;;;;;;4.47;1.67;;;15.40;99.90;;;;;;5033996;28;20436;-43
2021/05/22 07:04:56;;;;;;;5.03;1.83;;;15.60;99.90;;;;;;5034015;28;20444;-45
2021/05/22 07:07:22;;;;;;;3.10;1.77;;;15.80;99.90;;;;;;5033420;28;20455;-45
2021/05/22 07:09:49;;;;;;;3.13;1.83;;;15.90;99.90;;;;;;5033499;28;20448;-45
2021/05/22 07:12:16;;;;;;;2.93;1.90;;;16.00;99.90;;;;;;5033284;28;20963;-47
2021/05/22 07:14:42;;;;;;;2.70;1.37;;;16.20;99.90;;;;;;5034767;28;20459;-48
2021/05/22 07:17:08;;;;;;;3.70;1.93;;;16.30;99.90;;;;;;5034572;28;20444;-48
2021/05/22 07:19:34;;;;;;;2.67;2.00;;;16.60;99.90;;;;;;5032534;28;20452;-47
2021/05/22 07:22:00;;;;;;;4.13;1.77;;;17.20;99.90;;;;;;5032767;28;20517;-47
2021/05/22 07:24:26;;;;;;;3.33;2.30;;;17.50;99.90;;;;;;5032607;28;20523;-46
2021/05/22 07:26:52;;;;;;;2.80;2.03;;;17.80;99.90;;;;;;5032628;28;20460;-50
2021/05/22 07:29:22;;;;;;;7.13;1.77;;;17.80;99.90;;;;;;5032839;28;20496;-46
2021/05/22 07:31:48;;;;;;;3.13;1.47;;;17.70;99.90;;;;;;5032447;28;20444;-47
2021/05/22 07:34:14;;;;;;;3.30;1.77;;;17.50;99.90;;;;;;5032181;28;20780;-47
2021/05/22 07:36:44;;;;;;;2.93;1.50;;;17.40;99.90;;;;;;5032572;28;20520;-49
2021/05/22 07:39:12;;;;;;;1.70;1.10;;;17.10;99.90;;;;;;5032405;28;20509;-46
2021/05/22 07:41:39;;;;;;;4.10;1.27;;;16.90;99.90;;;;;;5032339;28;20937;-46
2021/05/22 07:44:05;;;;;;;4.10;1.40;;;16.70;99.90;;;;;;5032548;28;20453;-45
2021/05/22 07:46:33;;;;;;;2.60;1.37;;;17.00;99.90;;;;;;5032538;28;20501;-51
2021/05/22 07:48:59;;;;;;;3.70;2.00;;;17.40;99.90;;;;;;5031938;28;20944;-46
2021/05/22 07:51:25;;;;;;;2.00;1.20;;;17.50;99.90;;;;;;5032392;28;20460;-45
2021/05/22 07:53:51;;;;;;;2.30;1.27;;;17.60;99.90;;;;;;5032525;28;20476;-47
2021/05/22 07:56:17;;;;;;;14.00;3.43;;;17.70;99.90;;;;;;5032413;28;20456;-47
2021/05/22 07:58:44;;;;;;;3.87;1.80;;;17.60;99.90;;;;;;5032489;28;20908;-48
2021/05/22 08:01:11;;;;;;;12.70;9.90;;;17.40;99.90;;;;;;5032562;28;20805;-48
2021/05/22 08:03:39;;;;;;;7.60;4.27;;;17.20;99.90;;;;;;5033029;28;20444;-46
2021/05/22 08:06:06;;;;;;;8.30;4.70;;;17.10;99.90;;;;;;5031605;28;20448;-47
2021/05/22 08:08:32;;;;;;;3.63;2.20;;;17.40;99.90;;;;;;5032037;28;20452;-47
2021/05/22 08:10:58;;;;;;;7.20;3.40;;;17.60;99.90;;;;;;5033165;28;20452;-45
2021/05/22 08:13:28;;;;;;;9.73;2.97;;;18.10;99.90;;;;;;5032725;28;20480;-48
2021/05/22 08:15:56;;;;;;;5.83;2.70;;;18.40;99.90;;;;;;5032862;28;20445;-49
2021/05/22 08:18:22;;;;;;;3.97;2.07;;;19.00;99.90;;;;;;5031332;28;20460;-50
2021/05/22 08:20:50;;;;;;;3.47;2.10;;;20.30;99.90;;;;;;5031357;28;20472;-49
2021/05/22 08:23:17;;;;;;;2.33;1.13;;;21.20;95.30;;;;;;5031760;28;20772;-45
2021/05/22 08:25:43;;;;;;;4.63;1.97;;;21.60;92.20;;;;;;5031536;28;20508;-49
2021/05/22 08:28:09;;;;;;;5.27;3.90;;;22.40;91.70;;;;;;5031838;28;20493;-45
2021/05/22 08:30:36;;;;;;;4.17;2.10;;;23.60;80.90;;;;;;5031344;28;20455;-47
2021/05/22 08:33:02;;;;;;;3.10;1.47;;;24.20;70.60;;;;;;5031697;28;20476;-50
2021/05/22 08:35:29;;;;;;;4.40;1.60;;;24.80;65.80;;;;;;5031613;28;20467;-46
2021/05/22 08:37:56;;;;;;;4.83;1.90;;;25.40;61.80;;;;;;5031880;28;20448;-47
2021/05/22 08:40:26;;;;;;;2.63;1.50;;;25.70;59.60;;;;;;5031854;28;20440;-48
2021/05/22 08:42:53;;;;;;;3.33;1.80;;;25.60;57.40;;;;;;5031721;28;20747;-44
2021/05/22 08:45:22;;;;;;;6.20;2.50;;;25.10;56.60;;;;;;5031044;28;20444;-46
2021/05/22 08:47:51;;;;;;;5.70;1.87;;;24.70;56.90;;;;;;5032196;28;20445;-47
2021/05/22 08:50:17;;;;;;;4.10;1.90;;;25.10;56.50;;;;;;5032250;28;20787;-48
2021/05/22 08:52:44;;;;;;;4.40;1.37;;;25.00;55.70;;;;;;5026114;28;20529;-47
2021/05/22 08:55:13;;;;;;;3.70;1.97;;;25.20;55.10;;;;;;5018762;28;20445;-45
2021/05/22 08:57:39;;;;;;;3.63;1.60;;;25.80;52.70;;;;;;5025617;28;20444;-45
2021/05/22 09:00:10;;;;;;;6.63;2.23;;;26.30;52.10;;;;;;5023284;28;20444;-47
2021/05/22 09:02:37;;;;;;;5.63;1.27;;;26.80;50.90;;;;;;5016787;28;20455;-52
2021/05/22 09:05:18;;;;;;;3.30;2.03;;;26.60;50.30;;;;;;5023247;28;20456;-48
2021/05/22 09:07:45;;;;;;;4.80;1.90;;;25.70;52.20;;;;;;5020619;28;20457;-46
2021/05/22 09:10:15;;;;;;;3.00;1.70;;;25.30;52.80;;;;;;5021498;28;20449;-46
2021/05/22 09:12:43;;;;;;;6.20;1.83;;;25.30;52.80;;;;;;5025621;28;20562;-46
2021/05/22 09:15:12;;;;;;;1.80;1.17;;;25.50;51.90;;;;;;5025088;28;20440;-47
2021/05/22 09:17:50;;;;;;;1.87;1.40;;;24.60;52.10;;;;;;5019265;28;20761;-51
2021/05/22 09:20:22;;;;;;;7.40;2.07;;;23.80;53.80;;;;;;5020589;28;20486;-49
2021/05/22 09:22:59;;;;;;;4.13;1.60;;;23.00;56.00;;;;;;5020500;28;20444;-46
2021/05/22 09:25:27;;;;;;;3.30;1.63;;;22.20;57.50;;;;;;5018143;28;21012;-45
2021/05/22 09:27:55;;;;;;;6.10;1.90;;;21.20;58.30;;;;;;5017168;28;20943;-47
2021/05/22 09:30:23;;;;;;;4.90;1.57;;;21.20;58.60;;;;;;5022768;28;20501;-45
2021/05/22 09:32:50;;;;;;;6.17;2.90;;;22.00;58.10;;;;;;5026102;28;20499;-48
2021/05/22 09:35:17;;;;;;;9.63;5.20;;;22.40;57.20;;;;;;5021185;28;20467;-44
2021/05/22 09:40:22;;;;;;;3.73;3.20;;;21.00;59.30;;;;;;5515380;23;20496;-47
2021/05/22 09:42:50;;;;;;;4.60;1.70;;;21.30;60.50;;;;;;5013082;28;20456;-43
2021/05/22 09:45:24;;;;;;;2.60;2.40;;;22.30;57.60;;;;;;5014313;28;20449;-50
2021/05/22 09:50:32;;;;;;;2.40;1.40;;;24.70;54.00;;;;;;5365840;23;20490;-50
2021/05/22 09:53:00;;;;;;;4.43;1.50;;;25.40;51.10;;;;;;5009907;28;20480;-47
2021/05/22 09:55:26;;;;;;;2.93;1.30;;;25.90;51.30;;;;;;5010496;28;20465;-52
2021/05/22 09:57:56;;;;;;;2.50;1.73;;;25.60;48.60;;;;;;4999799;28;20477;-50
2021/05/22 10:00:27;;;;;;;2.70;1.40;;;25.00;50.00;;;;;;4999596;28;20596;-47
2021/05/22 10:02:54;;;;;;;3.47;1.87;;;25.40;49.10;;;;;;5003226;28;20460;-45
2021/05/22 10:05:22;;;;;;;4.27;2.07;;;25.60;47.90;;;;;;5038472;28;20450;-50
2021/05/22 10:07:51;;;;;;;3.73;1.80;;;25.20;48.00;;;;;;5000771;28;20563;-46
2021/05/22 10:10:18;;;;;;;3.80;2.40;;;24.60;48.80;;;;;;5029043;28;20444;-44
2021/05/22 10:12:46;;;;;;;3.67;1.20;;;24.10;49.60;;;;;;5045691;28;20503;-46
2021/05/22 10:15:15;;;;;;;1.90;1.20;;;23.80;49.80;;;;;;5046495;28;20542;-46
2021/05/22 10:17:42;;;;;;;2.03;1.20;;;23.10;49.80;;;;;;5038704;28;20462;-48
2021/05/22 10:20:09;;;;;;;3.97;2.03;;;22.30;51.50;;;;;;5002661;28;20446;-46
2021/05/22 10:22:36;;;;;;;4.00;1.57;;;21.90;52.40;;;;;;5032135;28;20830;-47
2021/05/22 10:25:05;;;;;;;2.40;1.30;;;22.00;52.50;;;;;;5045962;28;20472;-46
2021/05/22 10:27:32;;;;;;;2.50;1.73;;;22.50;51.10;;;;;;5038378;28;20449;-47
2021/05/22 10:29:58;;;;;;;6.90;3.67;;;22.20;51.20;;;;;;5027843;28;20467;-44
2021/05/22 10:32:27;;;;;;;4.70;3.03;;;21.70;52.60;;;;;;5005148;28;20509;-44
2021/05/22 10:34:54;;;;;;;4.23;2.10;;;21.20;53.70;;;;;;5030857;28;20524;-47
2021/05/22 10:37:41;;;;;;;5.20;1.50;;;20.70;54.70;;;;;;5039029;28;20441;-45
2021/05/22 10:40:09;;;;;;;2.83;1.20;;;20.30;55.80;;;;;;5050608;28;20460;-46
2021/05/22 10:42:50;;;;;;;2.10;1.30;;;19.60;59.00;;;;;;5002928;28;20447;-46
2021/05/22 10:45:34;;;;;;;5.17;2.07;;;18.80;63.80;;;;;;5033986;28;20922;-46
2021/05/22 10:48:02;;;;;;;2.80;1.23;;;18.30;65.50;;;;;;5005433;28;20426;-44
2021/05/22 10:50:35;;;;;;;2.33;1.20;;;17.90;68.80;;;;;;5002341;28;20812;-43
2021/05/22 10:53:21;;;;;;;1.80;1.30;;;17.30;71.10;;;;;;5003928;28;20470;-44
2021/05/22 10:56:06;;;;;;;3.60;1.10;;;16.90;76.50;;;;;;5013800;28;20925;-42
2021/05/22 10:58:32;;;;;;;3.03;2.60;;;16.70;83.10;;;;;;5003836;28;20449;-42
2021/05/22 11:01:34;;;;;;;4.90;1.33;;;16.80;87.50;;;;;;5004691;28;20929;-44
2021/05/22 11:04:40;;;;;;;2.50;1.17;;;16.90;90.30;;;;;;5014698;28;20518;-46
2021/05/22 11:07:23;;;;;;;4.40;1.50;;;17.00;91.50;;;;;;5034210;28;20453;-45
2021/05/22 11:09:56;;;;;;;5.73;1.70;;;17.00;92.40;;;;;;5017440;28;20499;-48
2021/05/22 11:12:45;;;;;;;3.70;1.60;;;17.20;92.10;;;;;;5000997;28;20441;-45
2021/05/22 11:15:46;;;;;;;1.90;1.30;;;17.50;91.30;;;;;;5000945;28;20469;-44
2021/05/22 11:18:16;;;;;;;6.10;2.30;;;17.70;90.70;;;;;;5006215;28;20900;-47
2021/05/22 11:21:04;;;;;;;3.53;1.40;;;17.70;91.20;;;;;;5000586;28;20469;-47
2021/05/22 11:24:10;;;;;;;6.00;1.70;;;17.80;87.60;;;;;;5001003;28;20449;-46
2021/05/22 11:26:58;;;;;;;4.83;1.73;;;17.90;83.70;;;;;;5000996;28;20452;-44
2021/05/22 11:29:52;;;;;;;4.50;2.20;;;18.00;73.50;;;;;;5030757;28;20453;-50
2021/05/22 11:32:44;;;;;;;4.13;1.70;;;17.90;70.20;;;;;;5000059;28;20430;-51
2021/05/22 11:35:45;;;;;;;4.33;2.00;;;17.80;68.90;;;;;;5002174;28;20468;-46
2021/05/22 11:38:37;;;;;;;4.70;1.60;;;17.80;68.00;;;;;;5002246;28;20480;-45
2021/05/22 11:41:11;;;;;;;7.70;2.47;;;17.80;69.20;;;;;;5008877;28;20512;-46
2021/05/22 11:43:42;;;;;;;2.00;1.40;;;18.10;69.20;;;;;;5006720;28;20446;-47
2021/05/22 11:46:10;;;;;;;4.63;1.37;;;18.20;73.20;;;;;;5000906;28;20453;-45
2021/05/22 11:48:40;;;;;;;7.10;1.60;;;18.20;75.70;;;;;;5001889;28;20453;-43
2021/05/22 11:51:09;;;;;;;4.70;1.77;;;17.90;76.00;;;;;;5002443;28;20545;-48
2021/05/22 11:53:37;;;;;;;5.87;2.00;;;17.70;77.70;;;;;;5030345;28;20514;-50
2021/05/22 11:56:04;;;;;;;6.40;2.13;;;17.50;81.00;;;;;;5063033;28;20972;-44
2021/05/22 11:58:32;;;;;;;3.57;1.43;;;17.30;74.50;;;;;;5028040;28;20441;-46
2021/05/22 12:01:08;;;;;;;6.20;1.53;;;17.50;74.40;;;;;;5054376;28;20928;-43
2021/05/22 12:03:36;;;;;;;3.30;1.47;;;17.90;72.20;;;;;;5019200;28;20510;-47
2021/05/22 12:06:04;;;;;;;3.80;1.87;;;18.00;71.30;;;;;;5014430;28;20898;-49
2021/05/22 12:31:01;;;;;;;3.73;2.63;;;18.20;70.00;;;;;;5089267;28;20531;-44
2021/05/22 12:33:29;;;;;;;5.17;2.00;;;19.50;69.80;;;;;;5088418;28;20434;-46
2021/05/22 12:36:02;;;;;;;4.23;2.27;;;19.50;68.40;;;;;;5088953;28;20813;-45
2021/05/22 12:38:35;;;;;;;2.77;1.20;;;19.30;65.20;;;;;;5090958;28;20437;-46
2021/05/22 12:41:02;;;;;;;3.13;1.87;;;19.00;64.70;;;;;;5091188;28;20527;-46
2021/05/22 12:43:44;;;;;;;2.80;1.80;;;18.70;66.90;;;;;;5091668;28;20453;-45
2021/05/22 12:46:29;;;;;;;4.87;1.73;;;18.50;66.50;;;;;;5091292;28;20947;-46
2021/05/22 12:49:08;;;;;;;2.07;1.37;;;18.40;67.10;;;;;;5092835;28;20480;-44
2021/05/22 12:51:34;;;;;;;3.10;1.70;;;18.40;67.20;;;;;;5087080;28;20441;-46
2021/05/22 12:54:29;;;;;;;2.80;1.50;;;18.40;67.50;;;;;;5092238;28;20759;-53
2021/05/22 12:56:57;;;;;;;9.60;1.47;;;18.30;67.30;;;;;;5088969;28;20434;-47
2021/05/22 12:59:23;;;;;;;8.83;1.57;;;18.10;69.50;;;;;;5092345;28;20475;-47
2021/05/22 13:02:15;;;;;;;2.70;1.40;;;18.00;68.20;;;;;;5091796;28;20907;-48
2021/05/22 13:04:43;;;;;;;3.53;1.60;;;18.00;70.40;;;;;;5090502;28;20441;-47
2021/05/22 13:07:09;;;;;;;3.73;1.80;;;18.30;69.00;;;;;;5086859;28;20456;-49
2021/05/22 13:09:54;;;;;;;5.00;1.23;;;18.50;70.20;;;;;;5090911;28;20812;-51
2021/05/22 13:12:21;;;;;;;1.70;1.43;;;18.80;70.20;;;;;;5090998;28;20457;-50
2021/05/22 13:14:50;;;;;;;3.60;1.13;;;19.00;67.60;;;;;;5079604;28;20573;-51
2021/05/22 13:17:17;;;;;;;1.63;1.20;;;19.10;66.40;;;;;;5089483;28;20449;-44
2021/05/22 13:19:49;;;;;;;3.80;1.67;;;19.10;67.00;;;;;;5089048;28;20477;-45
2021/05/22 13:22:30;;;;;;;1.90;1.23;;;19.10;65.60;;;;;;5089055;28;20449;-52
2021/05/22 13:25:12;;;;;;;1.97;1.57;;;19.00;67.50;;;;;;5088083;28;20434;-48
2021/05/22 13:27:57;;;;;;;1.57;1.03;;;18.70;67.00;;;;;;5089119;28;20449;-52
2021/05/22 13:30:25;;;;;;;3.20;1.30;;;18.40;68.60;;;;;;5081010;28;20490;-51
2021/05/22 13:32:56;;;;;;;3.77;1.50;;;18.10;70.20;;;;;;5074201;28;20438;-51
2021/05/22 13:35:25;;;;;;;3.87;1.40;;;18.00;73.10;;;;;;5090110;28;20477;-49
2021/05/22 13:37:52;;;;;;;4.23;1.43;;;18.00;74.20;;;;;;5094541;28;20501;-57
2021/05/22 13:40:19;;;;;;;1.63;1.10;;;18.20;74.40;;;;;;5094320;28;20502;-47
2021/05/22 13:42:46;;;;;;;4.80;1.83;;;18.30;74.30;;;;;;5095296;28;20442;-45
2021/05/22 13:45:13;;;;;;;2.60;1.33;;;18.10;70.50;;;;;;5097965;28;20419;-46
2021/05/22 13:47:39;;;;;;;4.57;1.23;;;18.20;70.50;;;;;;5088117;28;20469;-49
2021/05/22 13:50:08;;;;;;;2.70;1.60;;;18.30;70.70;;;;;;5056357;28;20516;-46
2021/05/22 13:52:35;;;;;;;2.60;1.47;;;18.30;71.50;;;;;;5063533;28;20451;-45
2021/05/22 13:55:03;;;;;;;2.20;1.27;;;18.20;71.00;;;;;;5077050;28;20454;-49
2021/05/22 13:57:29;;;;;;;3.20;1.33;;;18.10;72.60;;;;;;5078223;28;20473;-44
2021/05/22 13:59:55;;;;;;;2.90;1.43;;;18.00;72.80;;;;;;5077814;28;20443;-47
2021/05/22 14:02:25;;;;;;;4.80;1.90;;;17.80;74.10;;;;;;5078234;28;20505;-46
2021/05/22 14:04:51;;;;;;;1.67;1.30;;;17.70;74.70;;;;;;5070277;28;20750;-45
2021/05/22 14:07:18;;;;;;;4.43;1.40;;;17.50;77.00;;;;;;5057441;28;20451;-46
2021/05/22 14:09:45;;;;;;;2.43;1.30;;;17.20;79.70;;;;;;5057087;28;20832;-50
2021/05/22 14:12:11;;;;;;;5.50;2.30;;;17.00;82.40;;;;;;5057569;28;20499;-48
2021/05/22 14:14:39;;;;;;;1.90;1.03;;;16.80;90.60;;;;;;5056085;28;20443;-47
2021/05/22 14:17:06;;;;;;;3.97;1.60;;;16.70;93.40;;;;;;5056207;28;20772;-49
2021/05/22 14:19:32;;;;;;;2.23;1.30;;;16.50;94.50;;;;;;5056126;28;20466;-45
2021/05/22 14:21:59;;;;;;;1.87;0.90;;;16.30;95.80;;;;;;5057309;28;20443;-46
2021/05/22 14:24:26;;;;;;;2.60;1.10;;;16.20;95.00;;;;;;5058699;28;20776;-47
2021/05/22 14:26:53;;;;;;;2.10;1.03;;;16.10;92.80;;;;;;5058268;28;20482;-45
2021/05/22 14:29:20;;;;;;;2.03;1.20;;;16.20;92.30;;;;;;5057698;28;20935;-46
2021/05/22 14:31:47;;;;;;;1.20;0.90;;;16.50;90.70;;;;;;5057803;28;20428;-47
2021/05/22 14:34:14;;;;;;;1.40;1.10;;;16.70;89.30;;;;;;5057657;28;20459;-50
2021/05/22 14:36:40;;;;;;;1.40;1.30;;;16.60;89.70;;;;;;5057546;28;20499;-46
2021/05/22 14:39:07;;;;;;;1.43;1.30;;;16.70;90.50;;;;;;5057622;28;20443;-46
2021/05/22 14:41:34;;;;;;;1.40;0.80;;;16.70;89.80;;;;;;5067053;28;20909;-49
2021/05/22 14:44:01;;;;;;;2.00;1.00;;;16.80;89.40;;;;;;5077482;28;20461;-48
2021/05/22 14:46:27;;;;;;;5.63;2.50;;;16.90;89.80;;;;;;5077705;28;20490;-48
2021/05/22 14:48:53;;;;;;;2.53;0.90;;;17.00;89.40;;;;;;5077627;28;20475;-51
2021/05/22 14:51:20;;;;;;;2.93;0.90;;;17.10;90.00;;;;;;5077618;28;20449;-48
2021/05/22 14:53:47;;;;;;;1.30;1.13;;;17.20;90.20;;;;;;5077601;28;20595;-48
2021/05/22 14:56:14;;;;;;;4.23;1.40;;;17.30;90.20;;;;;;5076941;28;20500;-48
2021/05/22 14:58:42;;;;;;;1.30;1.10;;;17.40;89.90;;;;;;5077052;28;20514;-44
2021/05/22 15:01:09;;;;;;;1.53;1.00;;;17.60;90.00;;;;;;5077245;28;20801;-46
2021/05/22 15:03:35;;;;;;;2.23;0.83;;;17.70;87.00;;;;;;5076535;28;20467;-51
2021/05/22 15:06:02;;;;;;;1.87;1.03;;;17.80;87.40;;;;;;5077918;28;20450;-48
2021/05/22 15:08:28;;;;;;;1.90;0.90;;;17.90;87.00;;;;;;5077488;28;20510;-49
2021/05/22 15:10:56;;;;;;;4.20;1.17;;;17.90;87.30;;;;;;5077981;28;20508;-48
2021/05/22 15:13:22;;;;;;;4.20;0.80;;;17.80;86.80;;;;;;5078022;28;20789;-51
2021/05/22 15:15:49;;;;;;;1.37;1.00;;;17.70;84.50;;;;;;5077788;28;20442;-50
2021/05/22 15:18:16;;;;;;;4.37;2.20;;;17.40;85.60;;;;;;5078206;28;20955;-47
2021/05/22 15:20:42;;;;;;;2.83;1.60;;;17.30;86.50;;;;;;5077670;28;20438;-48
2021/05/22 15:23:09;;;;;;;2.07;1.20;;;17.20;88.40;;;;;;5077718;28;20454;-48
2021/05/22 15:25:36;;;;;;;3.30;1.10;;;17.00;89.70;;;;;;5078036;28;20446;-49
2021/05/22 15:28:05;;;;;;;1.80;1.07;;;16.70;92.60;;;;;;5079245;28;20537;-47
2021/05/22 15:30:31;;;;;;;2.53;1.77;;;16.10;99.90;;;;;;5079721;28;20486;-45
2021/05/22 15:32:59;;;;;;;2.17;1.00;;;15.50;99.90;;;;;;5079722;28;20458;-45
2021/05/22 15:35:29;;;;;;;1.70;1.10;;;15.10;99.90;;;;;;5079847;28;20931;-49
2021/05/22 15:37:56;;;;;;;1.77;0.77;;;14.90;99.90;;;;;;5079608;28;20553;-46
2021/05/22 15:40:24;;;;;;;3.67;1.10;;;14.90;99.90;;;;;;5079250;28;20434;-50
2021/05/22 15:42:52;;;;;;;2.13;0.83;;;15.00;99.90;;;;;;5058820;28;20830;-46
2021/05/22 15:45:19;;;;;;;1.60;1.30;;;15.10;99.90;;;;;;5059304;28;20447;-46
2021/05/22 15:48:24;;;;;;;2.10;0.90;;;15.10;99.90;;;;;;5059587;28;20447;-45
2021/05/22 15:59:01;;;;;;;1.53;0.93;;;15.80;99.90;;;;;;5058179;28;20466;-51
2021/05/22 16:01:33;;;;;;;2.43;1.10;;;15.90;99.90;;;;;;5057238;28;20459;-47
2021/05/22 16:06:42;;;;;;;1.00;0.77;;;16.00;99.90;;;;;;5051790;28;20431;-45
2021/05/22 16:09:09;;;;;;;1.83;1.00;;;16.00;99.90;;;;;;5056397;28;20483;-47
2021/05/22 16:11:35;;;;;;;3.33;1.27;;;16.00;99.90;;;;;;5056608;28;20823;-46
2021/05/22 16:14:01;;;;;;;1.53;1.00;;;15.90;99.90;;;;;;5057035;28;20456;-46
2021/05/22 16:16:28;;;;;;;1.53;0.93;;;15.90;99.90;;;;;;5056740;28;20897;-43
2021/05/22 16:18:55;;;;;;;2.30;1.27;;;15.90;99.90;;;;;;5056562;28;20824;-44
2021/05/22 16:21:21;;;;;;;1.30;1.00;;;15.90;99.90;;;;;;5056992;28;20462;-43
2021/05/22 16:23:48;;;;;;;1.63;1.07;;;15.90;99.90;;;;;;5056658;28;20459;-44
2021/05/22 16:26:15;;;;;;;1.47;0.90;;;15.90;99.90;;;;;;5054582;28;20463;-44
2021/05/22 16:28:42;;;;;;;1.90;1.20;;;15.80;99.90;;;;;;5054186;28;20475;-48
2021/05/22 16:31:08;;;;;;;2.40;1.10;;;15.70;99.90;;;;;;5054654;28;20443;-44
2021/05/22 16:33:35;;;;;;;7.07;2.50;;;15.60;99.90;;;;;;5054494;28;20443;-50
2021/05/22 16:36:01;;;;;;;2.27;1.57;;;15.60;99.90;;;;;;5053910;28;20494;-47
2021/05/22 16:38:28;;;;;;;1.40;1.10;;;15.60;99.90;;;;;;5054206;28;20451;-46
2021/05/22 16:40:55;;;;;;;2.23;1.30;;;15.60;99.90;;;;;;5053839;28;20443;-48
2021/05/22 16:43:22;;;;;;;2.60;1.10;;;15.70;99.90;;;;;;5055389;28;20451;-47
2021/05/22 16:45:49;;;;;;;2.33;1.20;;;15.60;99.90;;;;;;5056454;28;20466;-45
2021/05/22 16:48:15;;;;;;;1.50;1.13;;;15.60;99.90;;;;;;5056453;28;20455;-45
2021/05/22 16:50:42;;;;;;;2.50;1.10;;;15.70;99.90;;;;;;5072904;28;20478;-41
2021/05/22 16:53:08;;;;;;;2.23;1.47;;;15.60;99.90;;;;;;5073455;28;20458;-45
2021/05/22 16:55:35;;;;;;;1.57;1.47;;;15.60;99.90;;;;;;5072400;28;20482;-43
2021/05/22 16:58:02;;;;;;;2.43;1.30;;;15.70;99.90;;;;;;5074232;28;20823;-43
2021/05/22 17:00:29;;;;;;;1.80;1.03;;;15.70;99.90;;;;;;5073796;28;20489;-47
2021/05/22 17:02:57;;;;;;;1.27;0.90;;;15.80;99.90;;;;;;5073598;28;20483;-45
2021/05/22 17:05:26;;;;;;;1.40;1.10;;;15.80;99.90;;;;;;5074207;28;20458;-43
2021/05/22 17:07:52;;;;;;;2.00;1.47;;;15.80;99.90;;;;;;5076321;28;20892;-44
2021/05/22 17:10:19;;;;;;;2.80;1.23;;;15.80;99.90;;;;;;5076366;28;20493;-43
2021/05/22 17:12:46;;;;;;;1.47;1.00;;;15.70;99.90;;;;;;5076436;28;20454;-43
2021/05/22 17:15:15;;;;;;;1.23;1.13;;;15.70;99.90;;;;;;5077275;28;20556;-45
2021/05/22 17:17:42;;;;;;;2.47;1.37;;;15.70;99.90;;;;;;5077084;28;20450;-45
2021/05/22 17:20:09;;;;;;;1.67;1.10;;;15.80;99.90;;;;;;5077012;28;20443;-43
2021/05/22 17:22:36;;;;;;;7.10;4.57;;;15.80;99.90;;;;;;5071991;28;20462;-48
2021/05/22 17:25:05;;;;;;;12.90;2.53;;;15.80;99.90;;;;;;5058082;28;20951;-47
2021/05/22 17:27:31;;;;;;;1.90;1.70;;;15.70;99.90;;;;;;5058056;28;20805;-46
2021/05/22 17:29:58;;;;;;;2.80;1.87;;;15.50;99.90;;;;;;5056894;28;20588;-48
2021/05/22 17:32:27;;;;;;;3.17;1.67;;;15.50;99.90;;;;;;5057426;28;20443;-45
2021/05/22 17:34:53;;;;;;;1.73;1.37;;;15.30;99.90;;;;;;5058502;28;20564;-49
2021/05/22 17:37:20;;;;;;;5.80;1.70;;;15.30;99.90;;;;;;5057485;28;20451;-50
2021/05/22 17:39:46;;;;;;;6.17;1.70;;;15.30;99.90;;;;;;5057832;28;20517;-48
2021/05/22 17:42:13;;;;;;;3.63;2.00;;;15.20;99.90;;;;;;5058261;28;20463;-48
2021/05/22 17:44:39;;;;;;;3.00;2.13;;;15.20;99.90;;;;;;5058866;28;20769;-49
2021/05/22 17:47:09;;;;;;;4.03;1.87;;;15.20;99.90;;;;;;5059016;28;20450;-47
2021/05/22 17:49:37;;;;;;;1.80;1.40;;;15.20;99.90;;;;;;5058952;28;20489;-45
2021/05/22 17:52:04;;;;;;;1.70;1.17;;;15.20;99.90;;;;;;5067481;28;20446;-45
2021/05/22 17:54:30;;;;;;;5.90;1.80;;;15.20;99.90;;;;;;5076339;28;20438;-47
2021/05/22 17:56:57;;;;;;;4.70;1.30;;;15.20;99.90;;;;;;5078756;28;20494;-44
2021/05/22 17:59:24;;;;;;;1.40;1.30;;;15.20;99.90;;;;;;5078491;28;20444;-48
2021/05/22 18:01:51;;;;;;;2.80;2.43;;;15.20;99.90;;;;;;5075760;28;20466;-44
2021/05/22 18:04:17;;;;;;;3.10;1.80;;;15.10;99.90;;;;;;5060069;28;20494;-47
2021/05/22 18:06:45;;;;;;;4.10;2.60;;;15.00;99.90;;;;;;5067381;28;20454;-49
2021/05/22 18:09:14;;;;;;;6.00;2.00;;;14.90;99.90;;;;;;5080548;28;20474;-43
2021/05/22 18:11:43;;;;;;;2.80;1.70;;;14.90;99.90;;;;;;5080608;28;20462;-51
2021/05/22 18:14:10;;;;;;;4.50;1.90;;;14.90;99.90;;;;;;5080639;28;20545;-44
2021/05/22 18:16:40;;;;;;;5.23;1.80;;;14.80;99.90;;;;;;5080746;28;20504;-43
2021/05/22 18:19:09;;;;;;;4.60;1.83;;;14.70;99.90;;;;;;5080837;28;20442;-44
2021/05/22 18:21:36;;;;;;;2.30;1.60;;;14.60;99.90;;;;;;5080248;28;20458;-46
2021/05/22 18:24:05;;;;;;;1.70;1.20;;;14.60;99.90;;;;;;5079490;28;20896;-46
2021/05/22 18:26:31;;;;;;;4.00;2.07;;;14.50;99.90;;;;;;5097845;28;20465;-42
2021/05/22 18:28:58;;;;;;;2.20;1.60;;;14.40;99.90;;;;;;5111540;28;20485;-47
2021/05/22 18:31:31;;;;;;;3.80;1.87;;;14.30;99.90;;;;;;5105113;28;20442;-46
2021/05/22 18:33:59;;;;;;;2.00;1.77;;;14.40;99.90;;;;;;5094983;28;20450;-48
2021/05/22 18:36:26;;;;;;;1.40;1.00;;;14.30;99.90;;;;;;5088151;28;20450;-49
2021/05/22 18:38:52;;;;;;;3.00;1.70;;;14.40;99.90;;;;;;5077741;28;20465;-48
2021/05/22 18:41:20;;;;;;;2.23;1.53;;;14.40;99.90;;;;;;5077486;28;20469;-46
2021/05/22 18:43:47;;;;;;;2.67;1.90;;;14.50;99.90;;;;;;5078431;28;20508;-47
2021/05/22 18:46:14;;;;;;;3.73;1.40;;;14.50;99.90;;;;;;5079208;28;20446;-46
2021/05/22 18:48:41;;;;;;;2.20;1.70;;;14.50;99.90;;;;;;5079470;28;20442;-48
2021/05/22 18:51:08;;;;;;;3.20;1.70;;;14.50;99.90;;;;;;5084676;28;20438;-45
2021/05/22 18:53:37;;;;;;;4.37;2.00;;;14.40;99.90;;;;;;5074818;28;20530;-50
2021/05/22 18:56:14;;;;;;;4.20;1.67;;;14.30;99.90;;;;;;5077831;28;20434;-48
2021/05/22 18:58:43;;;;;;;3.63;1.63;;;14.30;99.90;;;;;;5076319;28;20446;-47
2021/05/22 19:01:10;;;;;;;6.03;2.53;;;14.30;99.90;;;;;;5075092;28;20445;-49
2021/05/22 19:03:39;;;;;;;2.77;2.40;;;14.40;99.90;;;;;;5076549;28;20523;-49
2021/05/22 19:06:06;;;;;;;2.97;2.00;;;14.40;99.90;;;;;;5075696;28;20458;-47
2021/05/22 19:08:32;;;;;;;2.90;1.83;;;14.40;99.90;;;;;;5075146;28;20750;-47
2021/05/22 19:10:58;;;;;;;2.50;1.90;;;14.40;99.90;;;;;;5075599;28;20572;-49
2021/05/22 19:13:25;;;;;;;3.23;1.63;;;14.30;99.90;;;;;;5076299;28;20446;-48
2021/05/22 19:15:53;;;;;;;4.90;1.57;;;14.30;99.90;;;;;;5075430;28;20819;-45
2021/05/22 19:18:23;;;;;;;1.50;1.30;;;14.40;99.90;;;;;;5076149;28;20434;-46
2021/05/22 19:20:49;;;;;;;3.03;1.37;;;14.40;99.90;;;;;;5076094;28;20453;-49
2021/05/22 19:23:16;;;;;;;1.90;1.43;;;14.50;99.90;;;;;;5089051;28;20449;-48
2021/05/22 19:25:42;;;;;;;4.83;1.40;;;14.50;99.90;;;;;;5077749;28;20757;-46